Time;durP1;ratioP1;P1;durP2;ratioP2;P2;SDS_P1;SDS_P2;PMS_P1;PMS_P2;Temp;Humidity;BMP_temperature;BMP_pressure;BME280_temperature;BME280_humidity;BME280_pressure;Samples;Min_cycle;Max_cycle;Signal;HPM_P1;HPM_P2
2023/04/30 00:01:14;;;;;;;6.57;6.00;;;12.60;99.90;;;;;;6204554;28;20050;-78
2023/04/30 00:04:15;;;;;;;5.97;5.38;;;12.60;99.90;;;;;;6211154;28;20038;-77
2023/04/30 00:07:17;;;;;;;6.50;5.47;;;12.60;99.90;;;;;;6208606;28;20046;-78
2023/04/30 00:10:19;;;;;;;6.78;4.95;;;12.60;99.90;;;;;;6205311;28;20513;-77
2023/04/30 00:13:21;;;;;;;8.05;5.43;;;12.60;99.90;;;;;;6202634;28;20050;-77
2023/04/30 00:16:24;;;;;;;5.80;5.20;;;12.60;99.90;;;;;;6202402;28;20038;-77
2023/04/30 00:19:25;;;;;;;6.32;5.53;;;12.60;99.90;;;;;;6202303;28;20054;-77
2023/04/30 00:22:27;;;;;;;10.57;5.53;;;12.60;99.90;;;;;;6202033;28;20053;-77
2023/04/30 00:25:29;;;;;;;6.78;4.80;;;12.50;99.90;;;;;;6201637;28;20050;-77
2023/04/30 00:28:30;;;;;;;9.10;5.88;;;12.50;99.90;;;;;;6201788;28;20053;-77
2023/04/30 00:31:34;;;;;;;6.22;5.63;;;12.50;99.90;;;;;;6202800;28;20050;-77
2023/04/30 00:34:35;;;;;;;7.05;6.10;;;12.50;99.90;;;;;;6202271;28;20046;-77
2023/04/30 00:37:37;;;;;;;6.55;5.85;;;12.50;99.90;;;;;;6202521;28;20042;-78
2023/04/30 00:40:41;;;;;;;7.70;6.97;;;12.40;99.90;;;;;;6202864;28;20051;-77
2023/04/30 00:43:43;;;;;;;6.68;5.07;;;12.40;99.90;;;;;;6201624;28;20054;-77
2023/04/30 00:46:46;;;;;;;7.28;6.57;;;12.40;99.90;;;;;;6202095;28;20129;-77
2023/04/30 00:49:47;;;;;;;6.20;5.60;;;12.30;99.90;;;;;;6202154;28;20055;-77
2023/04/30 00:52:49;;;;;;;8.02;5.57;;;12.30;99.90;;;;;;6202813;28;20054;-77
2023/04/30 00:55:52;;;;;;;7.78;6.97;;;12.30;99.90;;;;;;6203580;28;20042;-77
2023/04/30 00:58:55;;;;;;;8.15;6.15;;;12.30;99.90;;;;;;6207220;28;20057;-78
2023/04/30 01:01:59;;;;;;;7.97;7.18;;;12.30;99.90;;;;;;6205836;28;20052;-78
2023/04/30 01:05:01;;;;;;;7.22;6.53;;;12.20;99.90;;;;;;6205061;28;20046;-78
2023/04/30 01:08:02;;;;;;;9.45;6.15;;;12.20;99.90;;;;;;6206198;28;20061;-77
2023/04/30 01:11:16;;;;;;;6.97;6.25;;;12.20;99.90;;;;;;6207761;28;20046;-77
2023/04/30 01:14:23;;;;;;;8.80;6.97;;;12.20;99.90;;;;;;6204420;28;20534;-78
2023/04/30 01:17:34;;;;;;;7.57;6.65;;;12.20;99.90;;;;;;6207820;28;20057;-77
2023/04/30 01:20:41;;;;;;;8.73;6.78;;;12.20;99.90;;;;;;6228463;28;20046;-77
2023/04/30 01:24:05;;;;;;;9.00;7.15;;;12.10;99.90;;;;;;6226286;28;20053;-77
2023/04/30 01:27:18;;;;;;;8.63;7.30;;;12.10;99.90;;;;;;6227493;28;20073;-77
2023/04/30 01:30:22;;;;;;;9.25;7.00;;;12.10;99.90;;;;;;6227969;28;20124;-77
2023/04/30 01:33:24;;;;;;;10.63;7.70;;;12.10;99.90;;;;;;6227520;28;20041;-77
2023/04/30 01:36:45;;;;;;;8.45;7.25;;;12.10;99.90;;;;;;6227886;28;20042;-77
2023/04/30 01:39:57;;;;;;;11.07;6.13;;;12.10;99.90;;;;;;6228213;28;20050;-78
2023/04/30 01:43:05;;;;;;;8.45;7.55;;;12.10;99.90;;;;;;6233091;28;20054;-77
2023/04/30 01:46:19;;;;;;;8.35;7.47;;;12.10;99.90;;;;;;6232858;28;20045;-77
2023/04/30 01:49:30;;;;;;;7.60;6.80;;;12.10;99.90;;;;;;6233154;28;20058;-78
2023/04/30 01:52:38;;;;;;;6.72;6.07;;;12.10;99.90;;;;;;6233268;28;20046;-77
2023/04/30 01:55:43;;;;;;;8.50;7.03;;;12.10;99.90;;;;;;6233681;28;20060;-77
2023/04/30 01:58:48;;;;;;;7.78;5.85;;;12.00;99.90;;;;;;6233841;28;20436;-77
2023/04/30 02:01:51;;;;;;;6.75;5.90;;;12.00;99.90;;;;;;6233481;28;20053;-78
2023/04/30 02:04:53;;;;;;;7.22;6.25;;;12.10;99.90;;;;;;6232719;28;20042;-78
2023/04/30 02:07:54;;;;;;;7.75;6.97;;;12.10;99.90;;;;;;6233914;28;20076;-77
2023/04/30 02:10:56;;;;;;;7.80;6.43;;;12.10;99.90;;;;;;6233128;28;20050;-78
2023/04/30 02:13:58;;;;;;;7.10;6.40;;;12.10;99.90;;;;;;6229838;28;20583;-78
2023/04/30 02:17:01;;;;;;;7.55;6.60;;;12.10;99.90;;;;;;6231275;28;20057;-78
2023/04/30 02:20:03;;;;;;;6.65;5.95;;;12.10;99.90;;;;;;6233283;28;20065;-78
2023/04/30 02:23:05;;;;;;;6.70;5.57;;;12.10;99.90;;;;;;6232046;28;20054;-78
2023/04/30 02:26:06;;;;;;;7.68;6.15;;;12.10;99.90;;;;;;6231645;28;20048;-78
2023/04/30 02:29:08;;;;;;;6.05;5.45;;;12.10;99.90;;;;;;6232184;28;20054;-78
2023/04/30 02:32:11;;;;;;;6.40;5.43;;;12.20;99.90;;;;;;6227676;28;20050;-78
2023/04/30 02:35:13;;;;;;;9.02;5.50;;;12.10;99.90;;;;;;6226770;28;20450;-78
2023/04/30 02:38:15;;;;;;;13.57;6.88;;;12.10;99.90;;;;;;6226154;28;20050;-78
2023/04/30 02:41:16;;;;;;;11.45;5.32;;;12.10;99.90;;;;;;6230967;28;20042;-78
2023/04/30 02:44:18;;;;;;;6.40;5.55;;;12.10;99.90;;;;;;6234371;28;20050;-78
2023/04/30 02:47:21;;;;;;;7.68;6.45;;;12.10;99.90;;;;;;6234772;28;20064;-79
2023/04/30 02:50:22;;;;;;;9.25;6.05;;;12.10;99.90;;;;;;6233275;28;20126;-79
2023/04/30 02:53:24;;;;;;;7.97;6.22;;;12.10;99.90;;;;;;6223999;28;20042;-78
2023/04/30 02:56:26;;;;;;;6.40;5.80;;;12.10;99.90;;;;;;6223361;28;20052;-77
2023/04/30 02:59:28;;;;;;;7.35;6.50;;;12.10;99.90;;;;;;6223585;28;20053;-78
2023/04/30 03:02:31;;;;;;;8.25;5.88;;;12.10;99.90;;;;;;6222309;28;20046;-78
2023/04/30 03:05:32;;;;;;;6.10;5.50;;;12.10;99.90;;;;;;6223825;28;20045;-78
2023/04/30 03:08:34;;;;;;;6.40;5.72;;;12.10;99.90;;;;;;6223752;28;20042;-77
2023/04/30 03:11:36;;;;;;;6.63;5.63;;;12.10;99.90;;;;;;6212327;28;20413;-78
2023/04/30 03:14:38;;;;;;;5.57;5.00;;;12.00;99.90;;;;;;6199390;28;20042;-78
2023/04/30 03:17:41;;;;;;;7.35;6.28;;;12.00;99.90;;;;;;6199938;28;20046;-78
2023/04/30 03:20:42;;;;;;;7.75;6.55;;;12.00;99.90;;;;;;6198460;28;20527;-78
2023/04/30 03:23:45;;;;;;;7.97;5.63;;;12.00;99.90;;;;;;6216354;28;20045;-78
2023/04/30 03:26:46;;;;;;;9.07;5.90;;;12.00;99.90;;;;;;6223348;28;20048;-78
2023/04/30 03:29:48;;;;;;;7.70;6.90;;;12.00;99.90;;;;;;6226231;28;20045;-78
2023/04/30 03:32:51;;;;;;;8.65;6.10;;;11.90;99.90;;;;;;6227705;28;20420;-78
2023/04/30 03:35:53;;;;;;;6.25;5.30;;;11.90;99.90;;;;;;6233310;28;20050;-79
2023/04/30 03:38:54;;;;;;;7.75;6.40;;;11.90;99.90;;;;;;6236305;28;20405;-79
2023/04/30 03:41:56;;;;;;;7.00;6.30;;;11.90;99.90;;;;;;6236330;28;20046;-79
2023/04/30 03:44:58;;;;;;;7.22;6.38;;;11.80;99.90;;;;;;6235976;28;20046;-79
2023/04/30 03:48:01;;;;;;;6.78;6.07;;;11.80;99.90;;;;;;6236151;28;20060;-79
2023/04/30 03:51:02;;;;;;;6.97;6.13;;;11.80;99.90;;;;;;6234929;28;20056;-79
2023/04/30 03:54:05;;;;;;;7.72;6.82;;;11.70;99.90;;;;;;6233393;28;20053;-79
2023/04/30 03:57:09;;;;;;;8.48;7.32;;;11.70;99.90;;;;;;6233855;28;20046;-79
2023/04/30 04:00:12;;;;;;;6.43;5.82;;;11.60;99.90;;;;;;6231192;28;20049;-78
2023/04/30 04:03:15;;;;;;;7.57;6.72;;;11.60;99.90;;;;;;6231478;28;20496;-79
2023/04/30 04:06:17;;;;;;;8.75;6.90;;;11.60;99.90;;;;;;6231574;28;20049;-78
2023/04/30 04:09:19;;;;;;;7.55;6.45;;;11.60;99.90;;;;;;6237995;28;20050;-79
2023/04/30 04:12:20;;;;;;;7.78;6.43;;;11.50;99.90;;;;;;6238509;28;20128;-79
2023/04/30 04:15:22;;;;;;;10.68;7.78;;;11.50;99.90;;;;;;6238867;28;20050;-79
2023/04/30 04:18:25;;;;;;;9.60;7.15;;;11.50;99.90;;;;;;6239169;28;20060;-79
2023/04/30 04:21:27;;;;;;;10.20;8.50;;;11.50;99.90;;;;;;6239520;28;20050;-79
2023/04/30 04:24:29;;;;;;;10.50;8.32;;;11.50;99.90;;;;;;6239615;28;20050;-79
2023/04/30 04:27:31;;;;;;;8.52;7.47;;;11.40;99.90;;;;;;6239791;28;20046;-79
2023/04/30 04:30:33;;;;;;;7.60;6.30;;;11.40;99.90;;;;;;6239098;28;20058;-79
2023/04/30 04:33:36;;;;;;;11.07;8.10;;;11.40;99.90;;;;;;6238553;28;20046;-79
2023/04/30 04:36:38;;;;;;;13.65;7.78;;;11.40;99.90;;;;;;6239296;28;20088;-79
2023/04/30 04:39:39;;;;;;;12.30;7.95;;;11.40;99.90;;;;;;6240275;28;20057;-79
2023/04/30 04:42:41;;;;;;;12.02;8.68;;;11.40;99.90;;;;;;6234501;28;20519;-79
2023/04/30 04:45:43;;;;;;;12.75;9.68;;;11.40;99.90;;;;;;6230929;28;20046;-79
2023/04/30 04:48:46;;;;;;;10.95;9.85;;;11.40;99.90;;;;;;6234134;28;20046;-79
2023/04/30 04:51:48;;;;;;;10.30;8.65;;;11.50;99.90;;;;;;6234587;28;20058;-79
2023/04/30 04:54:49;;;;;;;8.77;7.88;;;11.50;99.90;;;;;;6239865;28;20054;-79
2023/04/30 04:57:51;;;;;;;9.13;7.88;;;11.50;99.90;;;;;;6239166;28;20045;-79
2023/04/30 05:00:53;;;;;;;12.15;8.35;;;11.60;99.90;;;;;;6239195;28;20049;-79
2023/04/30 05:03:56;;;;;;;9.60;8.60;;;11.70;99.90;;;;;;6232157;28;20508;-79
2023/04/30 05:06:58;;;;;;;11.27;8.68;;;11.70;99.90;;;;;;6236730;28;20053;-79
2023/04/30 05:10:00;;;;;;;9.95;8.95;;;11.80;99.90;;;;;;6235939;28;20057;-80
2023/04/30 05:13:01;;;;;;;9.75;8.70;;;11.80;99.90;;;;;;6236576;28;20045;-79
2023/04/30 05:16:03;;;;;;;10.25;9.02;;;11.90;99.90;;;;;;6237937;28;20046;-79
2023/04/30 05:19:08;;;;;;;8.70;7.70;;;12.00;99.90;;;;;;6218255;28;20053;-79
2023/04/30 05:22:10;;;;;;;10.02;9.00;;;12.00;99.90;;;;;;6212270;28;20074;-79
2023/04/30 05:25:11;;;;;;;12.88;7.53;;;12.00;99.90;;;;;;6212379;28;20058;-79
2023/04/30 05:28:13;;;;;;;8.70;7.75;;;12.10;99.90;;;;;;6211452;28;20050;-79
2023/04/30 05:31:15;;;;;;;10.48;9.40;;;12.20;99.90;;;;;;6216035;28;20048;-79
2023/04/30 05:34:18;;;;;;;10.07;8.20;;;12.40;99.90;;;;;;6239893;28;20456;-80
2023/04/30 05:37:21;;;;;;;11.95;8.57;;;12.50;99.90;;;;;;6241905;28;20416;-78
2023/04/30 05:40:23;;;;;;;9.45;8.00;;;12.80;99.90;;;;;;6240560;28;20046;-79
2023/04/30 05:43:24;;;;;;;10.48;7.45;;;13.00;99.90;;;;;;6243586;28;20109;-80
2023/04/30 05:46:26;;;;;;;10.02;7.72;;;13.10;99.90;;;;;;6243258;28;20045;-80
2023/04/30 05:49:29;;;;;;;9.98;7.47;;;13.10;99.90;;;;;;6243296;28;20527;-80
2023/04/30 05:52:31;;;;;;;9.77;8.82;;;13.10;99.90;;;;;;6239122;28;20042;-79
2023/04/30 05:55:33;;;;;;;8.77;7.97;;;13.20;99.90;;;;;;6227125;28;20137;-79
2023/04/30 05:58:35;;;;;;;8.43;7.53;;;13.40;99.90;;;;;;6226941;28;20073;-79
2023/04/30 06:01:36;;;;;;;11.07;7.75;;;13.60;99.90;;;;;;6225565;28;20046;-79
2023/04/30 06:04:39;;;;;;;12.40;7.72;;;13.90;99.90;;;;;;6226087;28;20045;-79
2023/04/30 06:07:41;;;;;;;7.90;7.05;;;14.10;99.90;;;;;;6227265;28;20046;-79
2023/04/30 06:10:43;;;;;;;9.13;8.23;;;14.20;99.90;;;;;;6227045;28;20072;-79
2023/04/30 06:13:47;;;;;;;8.05;7.35;;;14.40;99.90;;;;;;6227624;28;20417;-79
2023/04/30 06:16:49;;;;;;;8.48;7.65;;;14.60;99.90;;;;;;6226983;28;20050;-79
2023/04/30 06:19:52;;;;;;;11.05;9.00;;;15.10;99.90;;;;;;6227746;28;20050;-79
2023/04/30 06:22:54;;;;;;;7.88;7.05;;;15.50;99.90;;;;;;6226394;28;20046;-79
2023/04/30 06:25:56;;;;;;;7.43;6.80;;;15.70;99.90;;;;;;6227389;28;20046;-79
2023/04/30 06:28:57;;;;;;;9.13;7.53;;;15.90;99.90;;;;;;6226383;28;20049;-78
2023/04/30 06:31:59;;;;;;;8.35;7.55;;;15.90;99.90;;;;;;6225970;28;20057;-78
2023/04/30 06:35:02;;;;;;;10.13;7.50;;;15.90;99.90;;;;;;6225965;28;20050;-79
2023/04/30 06:38:04;;;;;;;10.85;7.82;;;16.10;99.90;;;;;;6225555;28;20050;-79
2023/04/30 06:41:06;;;;;;;10.93;8.10;;;16.40;99.90;;;;;;6225645;28;20061;-79
2023/04/30 06:44:09;;;;;;;9.75;7.63;;;16.70;99.90;;;;;;6226246;28;20524;-79
2023/04/30 06:47:10;;;;;;;12.52;8.90;;;16.90;99.90;;;;;;6226803;28;20052;-79
2023/04/30 06:50:14;;;;;;;11.05;8.13;;;16.90;99.90;;;;;;6226092;28;20054;-79
2023/04/30 06:53:16;;;;;;;9.57;6.68;;;16.80;99.90;;;;;;6225766;28;20081;-79
2023/04/30 06:56:18;;;;;;;7.82;7.00;;;16.60;99.90;;;;;;6226378;28;20050;-79
2023/04/30 06:59:19;;;;;;;9.13;7.40;;;16.60;99.90;;;;;;6227239;28;20045;-79
2023/04/30 07:02:21;;;;;;;9.18;7.85;;;16.80;99.90;;;;;;6225843;28;20049;-79
2023/04/30 07:05:24;;;;;;;8.48;6.80;;;17.10;99.90;;;;;;6201801;28;20449;-79
2023/04/30 07:08:26;;;;;;;8.70;7.80;;;17.50;99.90;;;;;;6185323;28;20433;-79
2023/04/30 07:11:27;;;;;;;8.20;7.40;;;17.70;99.90;;;;;;6218036;28;20049;-79
2023/04/30 07:14:29;;;;;;;10.00;8.60;;;18.20;99.90;;;;;;6224241;28;20425;-78
2023/04/30 07:17:31;;;;;;;8.40;7.68;;;18.70;99.60;;;;;;6200614;28;20062;-80
2023/04/30 07:20:34;;;;;;;9.35;8.02;;;19.20;98.40;;;;;;6186233;28;20046;-80
2023/04/30 07:23:36;;;;;;;10.02;7.53;;;19.70;97.40;;;;;;6201830;28;20056;-80
2023/04/30 07:26:37;;;;;;;8.60;7.80;;;20.40;96.50;;;;;;6198696;28;20038;-79
2023/04/30 07:29:39;;;;;;;8.13;7.15;;;20.80;94.90;;;;;;6202730;28;20505;-80
2023/04/30 07:32:41;;;;;;;8.68;7.78;;;21.20;93.70;;;;;;6203463;28;20046;-80
2023/04/30 07:35:44;;;;;;;8.98;8.07;;;20.90;91.90;;;;;;6203033;28;20081;-80
2023/04/30 07:38:46;;;;;;;8.23;7.43;;;19.80;91.50;;;;;;6202984;28;20468;-79
2023/04/30 07:41:47;;;;;;;8.27;7.00;;;19.50;93.10;;;;;;6203353;28;20579;-79
2023/04/30 07:44:49;;;;;;;9.52;8.55;;;19.60;92.70;;;;;;6202713;28;20057;-79
2023/04/30 07:47:51;;;;;;;9.00;7.28;;;20.20;91.60;;;;;;6204781;28;20046;-79
2023/04/30 07:50:55;;;;;;;9.00;8.10;;;20.30;91.50;;;;;;6226942;28;20398;-80
2023/04/30 07:53:57;;;;;;;7.18;6.57;;;20.70;91.10;;;;;;6228900;28;20056;-81
2023/04/30 07:56:58;;;;;;;8.63;7.57;;;21.20;90.30;;;;;;6218090;28;20046;-80
2023/04/30 08:00:00;;;;;;;9.10;6.97;;;21.80;87.90;;;;;;6202186;28;20066;-80
2023/04/30 08:03:02;;;;;;;8.00;7.30;;;21.80;85.90;;;;;;6202565;28;20046;-80
2023/04/30 08:06:05;;;;;;;6.72;6.10;;;22.00;84.80;;;;;;6201622;28;20050;-79
2023/04/30 08:09:07;;;;;;;6.68;5.95;;;22.00;83.80;;;;;;6201608;28;20043;-79
2023/04/30 08:12:09;;;;;;;7.60;6.90;;;21.50;83.60;;;;;;6201920;28;20113;-79
2023/04/30 08:15:11;;;;;;;6.50;5.78;;;21.90;84.30;;;;;;6202555;28;20061;-79
2023/04/30 08:18:12;;;;;;;6.93;6.25;;;22.20;82.30;;;;;;6203457;28;20054;-79
2023/04/30 08:21:17;;;;;;;7.18;6.47;;;21.80;81.40;;;;;;6202928;28;20050;-79
2023/04/30 08:24:18;;;;;;;9.63;7.05;;;21.20;81.30;;;;;;6204731;28;20042;-80
2023/04/30 08:27:20;;;;;;;8.93;8.13;;;20.90;80.70;;;;;;6207893;28;20042;-79
2023/04/30 08:30:22;;;;;;;7.32;5.32;;;20.50;82.90;;;;;;6205682;28;20046;-79
2023/04/30 08:33:23;;;;;;;6.85;5.72;;;21.00;82.50;;;;;;6210300;28;20046;-80
2023/04/30 08:36:26;;;;;;;7.60;5.90;;;21.80;81.50;;;;;;6207280;28;20496;-80
2023/04/30 08:39:28;;;;;;;10.57;6.07;;;22.50;79.20;;;;;;6203050;28;20061;-80
2023/04/30 08:42:33;;;;;;;6.57;5.93;;;22.30;77.50;;;;;;6193284;28;20061;-79
2023/04/30 08:45:36;;;;;;;6.15;5.60;;;21.90;77.50;;;;;;6194614;28;20050;-79
2023/04/30 08:48:37;;;;;;;7.60;4.75;;;21.70;77.60;;;;;;6200138;28;20042;-80
2023/04/30 08:51:41;;;;;;;6.22;5.63;;;22.00;76.90;;;;;;6220272;28;20046;-80
2023/04/30 08:54:44;;;;;;;6.22;5.45;;;22.00;75.90;;;;;;6218430;28;20073;-79
2023/04/30 08:57:46;;;;;;;6.43;5.80;;;21.10;74.50;;;;;;6220861;28;20060;-79
2023/04/30 09:00:48;;;;;;;6.32;5.70;;;20.20;75.40;;;;;;6215821;28;20042;-79
2023/04/30 09:03:49;;;;;;;6.68;4.60;;;19.40;76.70;;;;;;6221231;28;20054;-79
2023/04/30 09:06:57;;;;;;;5.88;5.28;;;19.00;77.90;;;;;;6222852;28;20099;-79
2023/04/30 09:09:59;;;;;;;;;;;18.80;78.90;;;;;;6215906;28;20121;-79
2023/04/30 09:13:02;;;;;;;5.75;5.18;;;18.90;79.00;;;;;;6211181;28;19929;-78
2023/04/30 09:16:04;;;;;;;7.32;5.10;;;18.80;78.80;;;;;;6216956;28;20062;-79
2023/04/30 09:19:06;;;;;;;10.48;6.35;;;18.70;78.70;;;;;;6215109;28;20057;-79
2023/04/30 09:22:22;;;;;;;6.65;4.72;;;18.40;79.50;;;;;;6219457;28;20049;-79
2023/04/30 09:25:38;;;;;;;7.00;5.70;;;18.40;79.90;;;;;;6215958;28;20057;-79
2023/04/30 09:28:54;;;;;;;9.55;6.07;;;18.00;80.10;;;;;;6216805;28;20041;-79
2023/04/30 09:32:08;;;;;;;6.10;5.50;;;17.80;80.90;;;;;;6212277;28;20054;-79
2023/04/30 09:35:29;;;;;;;7.65;6.05;;;17.60;81.30;;;;;;6217830;28;20038;-79
2023/04/30 09:38:32;;;;;;;7.10;6.40;;;17.50;82.00;;;;;;6214928;28;20107;-78
2023/04/30 09:41:35;;;;;;;6.43;5.80;;;17.40;82.70;;;;;;6210627;28;20058;-78
2023/04/30 09:44:38;;;;;;;7.63;5.68;;;17.50;83.50;;;;;;6215890;28;20072;-79
2023/04/30 09:47:40;;;;;;;6.20;5.60;;;17.50;83.90;;;;;;6214897;28;20046;-79
2023/04/30 09:50:43;;;;;;;8.30;5.20;;;17.50;84.50;;;;;;6213263;28;20101;-80
2023/04/30 09:53:47;;;;;;;7.07;5.68;;;17.70;84.70;;;;;;6211350;28;20046;-79
2023/04/30 09:56:52;;;;;;;5.70;4.57;;;17.90;85.00;;;;;;6220727;28;20542;-79
2023/04/30 09:59:56;;;;;;;4.97;4.47;;;18.10;84.20;;;;;;6219083;28;20045;-80
2023/04/30 10:02:59;;;;;;;4.72;4.18;;;18.30;83.30;;;;;;6215724;28;20042;-80
2023/04/30 10:06:01;;;;;;;6.93;4.97;;;18.80;82.50;;;;;;6217714;28;20054;-80
2023/04/30 10:09:06;;;;;;;5.85;4.93;;;19.20;81.20;;;;;;6219506;28;20047;-80
2023/04/30 10:12:14;;;;;;;5.78;4.95;;;19.40;79.90;;;;;;6208840;28;20054;-81
2023/04/30 10:15:20;;;;;;;6.07;4.47;;;19.50;79.30;;;;;;6208875;28;20135;-80
2023/04/30 10:18:29;;;;;;;5.45;4.60;;;19.30;79.20;;;;;;6210522;28;20042;-81
2023/04/30 10:21:32;;;;;;;4.75;4.35;;;19.30;79.90;;;;;;6211355;28;20054;-80
2023/04/30 10:24:36;;;;;;;5.40;4.97;;;19.50;79.50;;;;;;6209859;28;20049;-81
2023/04/30 10:27:38;;;;;;;4.43;3.70;;;19.50;78.70;;;;;;6207770;28;20058;-81
2023/04/30 10:30:42;;;;;;;4.85;4.45;;;19.40;78.00;;;;;;6208560;28;20047;-80
2023/04/30 10:33:50;;;;;;;4.63;4.22;;;19.40;77.40;;;;;;6205972;28;20050;-81
2023/04/30 10:36:57;;;;;;;3.53;3.08;;;19.40;76.70;;;;;;6206280;28;20048;-81
2023/04/30 10:40:03;;;;;;;3.58;3.28;;;19.40;75.90;;;;;;6209666;28;20047;-81
2023/04/30 10:43:05;;;;;;;4.65;3.08;;;19.50;75.00;;;;;;6208378;28;20050;-79
2023/04/30 10:46:08;;;;;;;8.45;3.60;;;19.60;74.60;;;;;;6212139;28;20046;-80
2023/04/30 10:49:13;;;;;;;4.25;3.50;;;19.70;74.30;;;;;;6210823;28;20054;-81
2023/04/30 10:52:25;;;;;;;3.67;3.38;;;19.70;74.20;;;;;;6211643;28;20064;-80
2023/04/30 10:55:30;;;;;;;3.70;3.40;;;19.90;74.00;;;;;;6210186;28;20116;-81
2023/04/30 10:58:34;;;;;;;5.47;3.47;;;19.90;73.40;;;;;;6207515;28;21271;-81
2023/04/30 11:01:55;;;;;;;3.15;2.90;;;19.80;72.10;;;;;;6207595;28;20576;-80
2023/04/30 11:05:11;;;;;;;4.32;2.80;;;19.70;72.10;;;;;;6210042;28;20518;-81
2023/04/30 11:08:12;;;;;;;4.00;3.10;;;19.70;71.50;;;;;;6208963;28;20520;-81
2023/04/30 11:11:20;;;;;;;3.63;3.33;;;19.90;72.10;;;;;;6209918;28;20058;-81
2023/04/30 11:14:22;;;;;;;;;;;20.00;70.50;;;;;;6206173;28;20520;-81
2023/04/30 11:17:27;;;;;;;3.80;3.25;;;19.70;71.00;;;;;;6207438;28;19922;-81
2023/04/30 11:20:28;;;;;;;3.40;2.85;;;19.70;71.30;;;;;;6202984;28;20046;-80
2023/04/30 11:23:34;;;;;;;4.95;3.15;;;19.70;70.40;;;;;;6206861;28;20057;-80
2023/04/30 11:27:04;;;;;;;4.88;3.08;;;19.80;69.70;;;;;;6207778;28;20045;-80
2023/04/30 11:30:12;;;;;;;5.40;3.00;;;19.90;68.80;;;;;;6204515;28;20046;-80
2023/04/30 11:33:14;;;;;;;3.05;2.83;;;20.00;68.50;;;;;;6205983;28;20044;-81
2023/04/30 11:36:16;;;;;;;4.22;2.70;;;20.00;68.90;;;;;;6209825;28;20053;-80
2023/04/30 11:39:18;;;;;;;2.95;2.67;;;20.20;68.30;;;;;;6215680;28;20052;-80
2023/04/30 11:42:21;;;;;;;3.45;2.72;;;20.50;68.30;;;;;;6214294;28;20429;-81
2023/04/30 11:45:23;;;;;;;6.85;2.83;;;20.70;66.40;;;;;;6205256;28;20049;-81
2023/04/30 11:48:30;;;;;;;6.32;3.17;;;20.80;66.60;;;;;;6203047;28;20154;-81
2023/04/30 11:51:32;;;;;;;3.70;2.85;;;20.80;65.30;;;;;;6205151;28;20057;-81
2023/04/30 11:54:34;;;;;;;3.00;2.38;;;20.80;64.60;;;;;;6211910;28;20049;-81
2023/04/30 11:57:41;;;;;;;3.50;2.78;;;20.80;65.20;;;;;;6225177;28;20046;-81
2023/04/30 12:00:43;;;;;;;4.93;3.22;;;21.00;64.50;;;;;;6227084;28;20046;-81
2023/04/30 12:03:46;;;;;;;3.22;2.58;;;20.80;64.10;;;;;;6228965;28;20054;-81
2023/04/30 12:06:48;;;;;;;2.45;2.05;;;20.70;63.50;;;;;;6227088;28;20054;-81
2023/04/30 12:09:54;;;;;;;2.38;1.80;;;20.70;64.00;;;;;;6225184;28;20042;-82
2023/04/30 12:12:57;;;;;;;3.17;2.05;;;20.70;64.20;;;;;;6226465;28;20033;-81
2023/04/30 12:15:59;;;;;;;3.15;2.70;;;20.80;63.60;;;;;;6227362;28;20058;-81
2023/04/30 12:19:02;;;;;;;2.88;2.40;;;20.70;63.20;;;;;;6223516;28;20054;-81
2023/04/30 12:22:04;;;;;;;3.47;2.38;;;20.60;63.60;;;;;;6228553;28;20068;-81
2023/04/30 12:25:08;;;;;;;4.65;2.33;;;20.60;63.40;;;;;;6217063;28;20065;-81
2023/04/30 12:28:11;;;;;;;2.83;2.60;;;20.60;63.40;;;;;;6224782;28;20104;-82
2023/04/30 12:31:13;;;;;;;4.68;2.72;;;20.50;62.90;;;;;;6224896;28;20060;-82
2023/04/30 12:34:16;;;;;;;5.53;2.65;;;20.30;63.00;;;;;;6225996;28;20046;-81
2023/04/30 12:37:17;;;;;;;2.63;2.42;;;20.30;62.80;;;;;;6221421;28;20042;-80
2023/04/30 12:40:20;;;;;;;4.22;3.00;;;20.20;63.00;;;;;;6216040;28;20078;-82
2023/04/30 12:43:23;;;;;;;3.78;2.92;;;20.00;63.40;;;;;;6217822;28;20054;-83
2023/04/30 12:46:28;;;;;;;3.30;2.42;;;20.00;63.90;;;;;;6218815;28;20062;-82
2023/04/30 12:49:34;;;;;;;3.28;2.80;;;19.90;64.00;;;;;;6220255;28;20058;-83
2023/04/30 12:52:36;;;;;;;3.95;3.22;;;19.80;64.40;;;;;;6222251;28;20046;-83
2023/04/30 12:55:38;;;;;;;4.38;3.47;;;19.70;64.80;;;;;;6224071;28;22517;-83
2023/04/30 12:58:44;;;;;;;3.35;3.03;;;19.70;65.10;;;;;;6227457;28;20056;-83
2023/04/30 13:01:46;;;;;;;3.15;2.88;;;19.90;64.40;;;;;;6220706;28;20042;-83
2023/04/30 13:04:48;;;;;;;4.95;2.95;;;19.80;64.40;;;;;;6225031;28;21877;-83
2023/04/30 13:07:54;;;;;;;5.07;3.25;;;19.80;64.70;;;;;;6222032;28;20080;-84
2023/04/30 13:10:56;;;;;;;2.75;2.55;;;20.00;64.50;;;;;;6220782;28;20049;-82
2023/04/30 13:13:59;;;;;;;5.28;2.85;;;20.00;64.10;;;;;;6219600;28;20147;-81
2023/04/30 13:17:03;;;;;;;4.15;3.15;;;19.90;63.90;;;;;;6220798;28;20054;-82
2023/04/30 13:20:06;;;;;;;2.78;2.53;;;20.00;63.90;;;;;;6222035;28;20069;-82
2023/04/30 13:23:08;;;;;;;6.35;3.78;;;20.00;64.20;;;;;;6225404;28;20060;-82
2023/04/30 13:26:10;;;;;;;3.47;3.17;;;20.40;64.40;;;;;;6215838;28;20050;-82
2023/04/30 13:29:13;;;;;;;3.58;2.72;;;20.80;63.70;;;;;;6221678;28;20054;-82
2023/04/30 13:32:15;;;;;;;2.92;2.65;;;20.80;63.00;;;;;;6221442;28;20053;-81
2023/04/30 13:35:20;;;;;;;3.20;2.90;;;20.70;62.60;;;;;;6224587;28;22862;-82
2023/04/30 13:38:22;;;;;;;3.65;3.33;;;20.50;62.50;;;;;;6216205;28;20061;-83
2023/04/30 13:41:24;;;;;;;3.50;3.20;;;20.30;62.40;;;;;;6209606;28;20043;-82
2023/04/30 13:44:27;;;;;;;5.60;3.78;;;20.30;62.90;;;;;;6216995;28;20057;-83
2023/04/30 13:47:29;;;;;;;4.65;3.70;;;20.50;62.30;;;;;;6212751;28;20050;-81
2023/04/30 13:50:39;;;;;;;3.88;2.97;;;20.40;62.30;;;;;;6214671;28;20045;-83
2023/04/30 13:53:41;;;;;;;4.55;3.60;;;20.40;62.50;;;;;;6217891;28;20144;-83
2023/04/30 13:56:42;;;;;;;3.67;3.38;;;20.50;62.10;;;;;;6219657;28;20053;-82
2023/04/30 13:59:45;;;;;;;5.20;3.33;;;20.50;62.10;;;;;;6216653;28;20049;-83
2023/04/30 14:02:47;;;;;;;2.92;2.72;;;20.60;61.90;;;;;;6215304;28;20061;-82
2023/04/30 14:05:49;;;;;;;4.93;3.03;;;20.50;61.20;;;;;;6216735;28;20062;-82
2023/04/30 14:08:50;;;;;;;7.63;3.33;;;20.20;61.40;;;;;;6218629;28;20122;-82
2023/04/30 14:11:54;;;;;;;3.30;2.97;;;20.10;62.30;;;;;;6219902;28;20041;-82
2023/04/30 14:14:58;;;;;;;4.60;2.72;;;20.30;62.50;;;;;;6219721;28;20045;-83
2023/04/30 14:18:00;;;;;;;4.20;2.88;;;20.50;61.90;;;;;;6220354;28;20413;-82
2023/04/30 14:21:01;;;;;;;3.58;3.25;;;20.60;62.10;;;;;;6218845;28;20061;-83
2023/04/30 14:24:03;;;;;;;3.22;2.97;;;21.00;61.70;;;;;;6221267;28;20045;-83
2023/04/30 14:27:05;;;;;;;3.65;2.80;;;20.90;60.40;;;;;;6221563;28;20054;-83
2023/04/30 14:30:10;;;;;;;3.55;3.25;;;20.60;59.80;;;;;;6223600;28;20047;-83
2023/04/30 14:33:12;;;;;;;2.88;2.67;;;20.30;60.60;;;;;;6222484;28;20100;-83
2023/04/30 14:36:14;;;;;;;4.78;3.20;;;20.20;60.90;;;;;;6220205;28;20080;-83
2023/04/30 14:39:16;;;;;;;3.63;3.05;;;20.00;61.40;;;;;;6223471;28;20046;-83
2023/04/30 14:42:17;;;;;;;5.53;2.85;;;20.00;61.90;;;;;;6223436;28;20109;-83
2023/04/30 14:45:21;;;;;;;3.92;3.50;;;20.20;61.00;;;;;;6220690;28;20071;-84
2023/04/30 14:48:22;;;;;;;3.53;3.13;;;20.20;61.10;;;;;;6224602;28;20045;-83
2023/04/30 14:51:24;;;;;;;4.10;3.10;;;20.20;60.70;;;;;;6225433;28;20061;-82
2023/04/30 14:54:26;;;;;;;2.97;2.78;;;20.30;61.00;;;;;;6224593;28;20105;-83
2023/04/30 14:57:28;;;;;;;3.13;2.75;;;20.50;61.10;;;;;;6222587;28;20052;-84
2023/04/30 15:00:32;;;;;;;4.10;3.25;;;20.40;60.00;;;;;;6223465;28;20046;-84
2023/04/30 15:03:33;;;;;;;3.17;2.83;;;20.30;60.70;;;;;;6210591;28;20054;-82
2023/04/30 15:06:41;;;;;;;3.47;3.17;;;20.30;60.90;;;;;;6218126;28;20049;-83
2023/04/30 15:09:43;;;;;;;3.30;3.00;;;20.20;60.80;;;;;;6213381;28;20050;-83
2023/04/30 15:12:45;;;;;;;2.85;2.65;;;20.10;60.90;;;;;;6216115;28;20136;-82
2023/04/30 15:15:48;;;;;;;3.13;2.83;;;20.20;61.10;;;;;;6218146;28;20057;-82
2023/04/30 15:18:50;;;;;;;5.13;3.13;;;20.20;61.00;;;;;;6213615;28;20037;-81
2023/04/30 15:21:52;;;;;;;4.20;3.60;;;20.20;60.70;;;;;;6213768;28;20054;-83
2023/04/30 15:24:54;;;;;;;2.70;2.50;;;20.20;61.30;;;;;;6217228;28;20042;-81
2023/04/30 15:27:55;;;;;;;5.97;3.08;;;20.30;61.00;;;;;;6210990;28;20046;-82
2023/04/30 15:30:59;;;;;;;3.30;2.70;;;20.30;60.90;;;;;;6211875;28;20041;-81
2023/04/30 15:34:01;;;;;;;3.88;3.53;;;20.20;60.70;;;;;;6211192;28;20157;-81
2023/04/30 15:37:04;;;;;;;3.97;3.22;;;20.00;60.70;;;;;;6211401;28;20353;-81
2023/04/30 15:40:09;;;;;;;4.63;3.33;;;19.80;61.50;;;;;;6210588;28;20408;-81
2023/04/30 15:43:11;;;;;;;5.95;3.20;;;19.70;61.80;;;;;;6209570;28;20061;-81
2023/04/30 15:46:14;;;;;;;3.05;2.80;;;19.70;62.00;;;;;;6211372;28;20127;-81
2023/04/30 15:49:16;;;;;;;3.65;2.80;;;19.60;62.00;;;;;;6212515;28;20057;-82
2023/04/30 15:52:17;;;;;;;5.72;2.83;;;19.60;62.10;;;;;;6210698;28;20060;-82